createdAt,value
2019-02-26T00:01:26.176Z,10.88
2019-02-26T00:03:51.704Z,10.85
2019-02-26T00:06:18.903Z,10.82
2019-02-26T00:08:47.251Z,10.80
2019-02-26T00:11:11.719Z,10.77
2019-02-26T00:13:38.383Z,10.75
2019-02-26T00:16:07.674Z,10.76
2019-02-26T00:18:31.699Z,10.79
2019-02-26T00:20:59.067Z,10.74
2019-02-26T00:23:25.767Z,10.72
2019-02-26T00:25:51.804Z,10.74
2019-02-26T00:28:19.744Z,10.73
2019-02-26T00:30:45.130Z,10.70
2019-02-26T00:33:11.787Z,10.68
2019-02-26T00:35:39.885Z,10.73
2019-02-26T00:38:05.253Z,10.82
2019-02-26T00:40:32.701Z,10.84
2019-02-26T00:43:00.185Z,10.76
2019-02-26T00:45:27.218Z,10.72
2019-02-26T00:47:51.933Z,10.79
2019-02-26T00:50:18.604Z,10.69
2019-02-26T00:52:45.263Z,10.70
2019-02-26T00:55:11.914Z,10.65
2019-02-26T00:57:40.484Z,10.68
2019-02-26T01:00:05.340Z,10.71
2019-02-26T01:02:31.869Z,10.63
2019-02-26T01:04:58.559Z,10.67
2019-02-26T01:07:26.050Z,10.66
2019-02-26T01:09:52.480Z,10.64
2019-02-26T01:12:18.539Z,10.64
2019-02-26T01:14:46.391Z,10.65
2019-02-26T01:17:13.849Z,10.65
2019-02-26T01:19:40.358Z,10.63
2019-02-26T01:22:05.229Z,10.70
2019-02-26T01:24:32.706Z,10.77
2019-02-26T01:26:58.554Z,10.74
2019-02-26T01:29:26.045Z,10.72
2019-02-26T01:31:51.912Z,10.77
2019-02-26T01:34:20.290Z,10.72
2019-02-26T01:36:47.205Z,10.67
2019-02-26T01:39:13.876Z,10.73
2019-02-26T01:41:41.350Z,10.71
2019-02-26T01:44:05.312Z,10.67
2019-02-26T01:46:34.408Z,10.71
2019-02-26T01:48:59.791Z,10.67
2019-02-26T01:51:26.232Z,10.69
2019-02-26T01:53:53.670Z,10.72
2019-02-26T01:56:20.030Z,10.61
2019-02-26T01:58:45.609Z,10.82
2019-02-26T02:01:14.345Z,11.07
2019-02-26T02:03:38.945Z,11.08
2019-02-26T02:06:06.261Z,10.92
2019-02-26T02:08:32.427Z,10.89
2019-02-26T02:10:59.957Z,10.86
2019-02-26T02:13:28.334Z,10.84
2019-02-26T02:15:52.419Z,10.76
2019-02-26T02:18:21.015Z,10.76
2019-02-26T02:20:45.787Z,10.78
2019-02-26T02:23:12.438Z,10.73
2019-02-26T02:25:40.789Z,10.72
2019-02-26T02:28:05.782Z,10.72
2019-02-26T02:30:35.575Z,10.74
2019-02-26T02:33:00.126Z,10.73
2019-02-26T02:35:25.767Z,10.71
2019-02-26T02:37:53.611Z,10.73
2019-02-26T02:40:19.077Z,10.73
2019-02-26T02:42:48.882Z,10.70
2019-02-26T02:45:16.209Z,10.73
2019-02-26T02:47:39.050Z,10.79
2019-02-26T02:50:09.141Z,10.82
2019-02-26T02:52:37.369Z,10.81
2019-02-26T02:55:01.871Z,10.81
2019-02-26T02:57:30.050Z,10.79
2019-02-26T02:59:56.896Z,10.79
2019-02-26T03:02:23.013Z,10.74
2019-02-26T03:04:48.512Z,10.75
2019-02-26T03:07:17.708Z,10.70
2019-02-26T03:09:43.229Z,10.72
2019-02-26T03:12:08.550Z,10.69
2019-02-26T03:14:36.436Z,10.73
2019-02-26T03:17:01.856Z,10.76
2019-02-26T03:19:29.638Z,10.74
2019-02-26T03:21:55.168Z,10.74
2019-02-26T03:24:24.987Z,10.71
2019-02-26T03:26:48.539Z,10.72
2019-02-26T03:29:15.193Z,10.73
2019-02-26T03:31:46.822Z,10.70
2019-02-26T03:34:10.452Z,10.70
2019-02-26T03:36:38.308Z,10.78
2019-02-26T03:39:02.831Z,10.85
2019-02-26T03:41:31.082Z,10.79
2019-02-26T03:43:58.448Z,10.80
2019-02-26T03:46:21.870Z,10.86
2019-02-26T03:48:48.631Z,10.78
2019-02-26T03:51:17.845Z,10.76
2019-02-26T03:53:44.041Z,10.74
2019-02-26T03:56:11.734Z,10.77
2019-02-26T03:58:35.358Z,10.74
2019-02-26T04:01:07.290Z,10.78
2019-02-26T04:03:29.582Z,10.72
2019-02-26T04:05:57.280Z,10.71
2019-02-26T04:08:24.293Z,10.68
2019-02-26T04:10:49.966Z,10.82
2019-02-26T04:13:15.444Z,11.15
2019-02-26T04:15:42.159Z,11.40
2019-02-26T04:18:08.821Z,11.54
2019-02-26T04:20:35.562Z,11.70
2019-02-26T04:23:02.206Z,11.69
2019-02-26T04:25:31.379Z,11.74
2019-02-26T04:27:57.004Z,11.74
2019-02-26T04:30:22.213Z,11.63
2019-02-26T04:32:49.085Z,11.59
2019-02-26T04:35:15.542Z,11.66
2019-02-26T04:37:42.231Z,11.26
2019-02-26T04:40:11.903Z,11.02
2019-02-26T04:42:37.741Z,10.88
2019-02-26T04:45:05.088Z,10.79
2019-02-26T04:47:30.791Z,10.74
2019-02-26T04:49:57.215Z,10.75
2019-02-26T04:52:22.311Z,10.75
2019-02-26T04:54:48.977Z,10.83
2019-02-26T04:57:15.660Z,10.90
2019-02-26T04:59:43.870Z,10.93
2019-02-26T05:02:08.955Z,10.98
2019-02-26T05:04:37.005Z,11.01
2019-02-26T05:07:04.639Z,10.90
2019-02-26T05:09:30.596Z,10.89
2019-02-26T05:11:55.774Z,11.06
2019-02-26T05:14:23.671Z,10.97
2019-02-26T05:16:49.132Z,10.93
2019-02-26T05:19:17.036Z,11.05
2019-02-26T05:21:42.450Z,10.97
2019-02-26T05:24:09.110Z,11.09
2019-02-26T05:26:35.767Z,11.08
2019-02-26T05:29:02.487Z,10.89
2019-02-26T05:31:29.793Z,10.99
2019-02-26T05:33:57.721Z,11.33
2019-02-26T05:36:22.469Z,11.02
2019-02-26T05:38:49.732Z,10.99
2019-02-26T05:41:18.439Z,10.87
2019-02-26T05:43:49.416Z,10.97
2019-02-26T05:46:11.817Z,10.86
2019-02-26T05:48:39.952Z,10.99
2019-02-26T05:51:05.681Z,10.90
2019-02-26T05:53:31.806Z,10.82
2019-02-26T05:55:58.506Z,10.43
2019-02-26T05:58:25.164Z,10.30
2019-02-26T06:00:51.820Z,10.53
2019-02-26T06:03:18.869Z,10.15
2019-02-26T06:05:46.559Z,10.69
2019-02-26T06:08:11.977Z,10.87
2019-02-26T06:10:38.650Z,11.07
2019-02-26T06:13:07.417Z,10.97
2019-02-26T06:15:34.054Z,11.08
2019-02-26T06:17:58.694Z,10.99
2019-02-26T06:20:26.708Z,11.05
2019-02-26T06:22:52.140Z,11.05
2019-02-26T06:25:23.801Z,11.13
2019-02-26T06:27:45.520Z,11.09
2019-02-26T06:30:12.441Z,11.09
2019-02-26T06:32:40.166Z,11.04
2019-02-26T06:35:06.690Z,10.99
2019-02-26T06:37:33.830Z,11.04
2019-02-26T06:40:00.462Z,11.10
2019-02-26T06:42:25.727Z,11.22
2019-02-26T06:44:52.431Z,11.36
2019-02-26T06:47:20.960Z,11.03
2019-02-26T06:49:47.963Z,10.93
2019-02-26T06:52:13.016Z,11.01
2019-02-26T06:54:39.150Z,11.30
2019-02-26T06:57:05.815Z,11.33
2019-02-26T06:59:34.968Z,11.40
2019-02-26T07:01:59.146Z,11.39
2019-02-26T07:04:27.044Z,11.37
2019-02-26T07:06:55.164Z,11.50
2019-02-26T07:09:20.497Z,11.57
2019-02-26T07:11:46.261Z,11.47
2019-02-26T07:14:12.978Z,11.59
2019-02-26T07:16:40.461Z,11.58
2019-02-26T07:19:09.123Z,11.58
2019-02-26T07:21:35.683Z,11.58
2019-02-26T07:24:03.479Z,11.68
2019-02-26T07:26:29.183Z,11.58
2019-02-26T07:28:55.981Z,11.99
2019-02-26T07:31:24.338Z,11.93
2019-02-26T07:33:51.122Z,11.88
2019-02-26T07:36:18.338Z,11.65
2019-02-26T07:38:47.266Z,11.89
2019-02-26T07:41:12.569Z,11.68
2019-02-26T07:43:41.794Z,12.03
2019-02-26T07:46:06.119Z,11.82
2019-02-26T07:48:33.715Z,11.79
2019-02-26T07:50:59.491Z,12.02
2019-02-26T07:53:26.190Z,11.76
2019-02-26T07:55:52.869Z,12.27
2019-02-26T07:58:19.536Z,12.31
2019-02-26T08:00:49.578Z,12.23
2019-02-26T08:03:12.923Z,12.25
2019-02-26T08:05:39.589Z,12.33
2019-02-26T08:08:06.251Z,12.20
2019-02-26T08:10:35.181Z,12.33
2019-02-26T08:13:01.551Z,12.32
2019-02-26T08:15:27.798Z,12.21
2019-02-26T08:17:55.987Z,12.18
2019-02-26T08:20:19.693Z,12.17
2019-02-26T08:22:46.515Z,12.10
2019-02-26T08:25:13.245Z,12.17
2019-02-26T08:27:39.910Z,12.31
2019-02-26T08:30:09.389Z,12.29
2019-02-26T08:32:36.046Z,12.24
2019-02-26T08:35:02.768Z,12.21
2019-02-26T08:37:29.417Z,12.12
2019-02-26T08:39:57.672Z,12.30
2019-02-26T08:42:25.216Z,12.23
2019-02-26T08:44:53.762Z,12.35
2019-02-26T08:47:19.292Z,12.23
2019-02-26T08:49:47.485Z,12.23
2019-02-26T08:52:12.090Z,12.30
2019-02-26T08:54:38.707Z,12.37
2019-02-26T08:57:05.372Z,12.38
2019-02-26T08:59:32.104Z,12.55
2019-02-26T09:01:58.821Z,12.64
2019-02-26T09:04:25.481Z,12.74
2019-02-26T09:06:52.856Z,12.68
2019-02-26T09:09:20.515Z,12.93
2019-02-26T09:11:45.521Z,12.93
2019-02-26T09:14:14.004Z,12.90
2019-02-26T09:16:38.844Z,12.61
2019-02-26T09:19:05.528Z,12.81
2019-02-26T09:21:32.207Z,12.76
2019-02-26T09:24:00.042Z,12.64
2019-02-26T09:26:25.645Z,12.60
2019-02-26T09:28:53.156Z,12.93
2019-02-26T09:31:19.006Z,12.81
2019-02-26T09:33:45.703Z,12.90
2019-02-26T09:36:14.906Z,12.89
2019-02-26T09:38:39.922Z,12.91
2019-02-26T09:41:05.731Z,12.86
2019-02-26T09:43:36.037Z,12.48
2019-02-26T09:46:00.829Z,12.70
2019-02-26T09:48:27.502Z,12.63
2019-02-26T09:50:54.196Z,12.59
2019-02-26T09:53:20.884Z,12.68
2019-02-26T09:55:47.543Z,12.69
2019-02-26T09:58:15.941Z,12.77
2019-02-26T10:00:42.916Z,12.66
2019-02-26T10:03:10.182Z,12.78
2019-02-26T10:05:34.215Z,12.53
2019-02-26T10:08:03.483Z,12.52
2019-02-26T10:10:29.185Z,12.35
2019-02-26T10:12:56.538Z,12.77
2019-02-26T10:15:20.974Z,12.93
2019-02-26T10:17:47.656Z,12.82
2019-02-26T10:20:14.328Z,12.54
2019-02-26T10:22:41.020Z,12.39
2019-02-26T10:25:07.679Z,12.54
2019-02-26T10:27:36.086Z,12.52
2019-02-26T10:30:02.794Z,12.49
2019-02-26T10:32:27.827Z,12.36
2019-02-26T10:34:54.544Z,12.52
2019-02-26T10:37:22.605Z,12.46
2019-02-26T10:39:49.722Z,12.41
2019-02-26T10:42:14.648Z,12.50
2019-02-26T10:44:42.741Z,12.36
2019-02-26T10:47:08.758Z,12.51
2019-02-26T10:49:34.722Z,12.72
2019-02-26T10:52:01.372Z,12.53
2019-02-26T10:54:30.918Z,12.88
2019-02-26T10:56:54.699Z,12.79
2019-02-26T10:59:23.519Z,12.87
2019-02-26T11:01:51.670Z,13.07
2019-02-26T11:04:14.728Z,13.21
2019-02-26T11:06:44.179Z,13.07
2019-02-26T11:09:08.097Z,12.90
2019-02-26T11:11:35.612Z,13.16
2019-02-26T11:14:01.453Z,13.28
2019-02-26T11:16:30.479Z,13.25
2019-02-26T11:18:54.788Z,13.24
2019-02-26T11:21:21.481Z,13.24
2019-02-26T11:23:48.739Z,13.42
2019-02-26T11:26:18.066Z,13.53
2019-02-26T11:28:43.597Z,13.60
2019-02-26T11:31:09.464Z,13.45
2019-02-26T11:33:35.421Z,13.62
2019-02-26T11:36:03.044Z,13.72
2019-02-26T11:38:28.767Z,14.02
2019-02-26T11:40:55.531Z,13.94
2019-02-26T11:43:25.615Z,14.03
2019-02-26T11:45:49.006Z,14.05
2019-02-26T11:48:17.496Z,14.21
2019-02-26T11:50:44.687Z,14.24
2019-02-26T11:53:09.928Z,14.43
2019-02-26T11:55:37.493Z,14.16
2019-02-26T11:58:05.624Z,14.60
2019-02-26T12:00:33.931Z,14.48
2019-02-26T12:02:55.732Z,14.90
2019-02-26T12:05:24.231Z,14.94
2019-02-26T12:07:51.339Z,15.31
2019-02-26T12:10:15.873Z,15.30
2019-02-26T12:12:43.746Z,15.53
2019-02-26T12:15:12.471Z,15.82
2019-02-26T12:17:37.114Z,15.72
2019-02-26T12:20:03.782Z,15.61
2019-02-26T12:22:30.596Z,15.76
2019-02-26T12:24:58.881Z,15.83
2019-02-26T12:27:23.940Z,15.56
2019-02-26T12:29:51.827Z,15.58
2019-02-26T12:32:19.502Z,15.40
2019-02-26T12:34:47.835Z,15.30
2019-02-26T12:37:11.782Z,15.65
2019-02-26T12:39:38.372Z,15.43
2019-02-26T12:42:07.122Z,15.44
2019-02-26T12:44:34.684Z,15.52
2019-02-26T12:47:00.428Z,15.47
2019-02-26T12:49:25.227Z,15.44
2019-02-26T12:51:53.978Z,15.22
2019-02-26T12:54:18.604Z,15.23
2019-02-26T12:56:45.362Z,15.30
2019-02-26T12:59:12.049Z,15.03
2019-02-26T13:01:39.760Z,14.98
2019-02-26T13:04:06.203Z,15.08
2019-02-26T13:06:33.851Z,15.08
2019-02-26T13:08:58.760Z,15.02
2019-02-26T13:11:25.420Z,14.87
2019-02-26T13:13:53.571Z,14.84
2019-02-26T13:16:18.753Z,14.70
2019-02-26T13:18:47.831Z,14.72
2019-02-26T13:21:13.469Z,14.81
2019-02-26T13:23:39.048Z,14.78
2019-02-26T13:26:08.420Z,14.58
2019-02-26T13:28:32.995Z,14.61
2019-02-26T13:33:32.593Z,14.59
2019-02-26T13:36:00.372Z,14.49
2019-02-26T13:38:24.538Z,14.31
2019-02-26T13:40:46.489Z,14.49
2019-02-26T13:43:13.920Z,14.40
2019-02-26T13:45:39.819Z,14.44
2019-02-26T13:48:06.503Z,14.37
2019-02-26T13:50:33.184Z,14.39
2019-02-26T13:52:59.859Z,14.34
2019-02-26T13:55:26.541Z,14.18
2019-02-26T13:57:53.214Z,14.35
2019-02-26T14:00:25.968Z,14.34
2019-02-26T14:02:46.598Z,14.17
2019-02-26T14:05:13.438Z,14.17
2019-02-26T14:07:40.085Z,14.13
2019-02-26T14:10:06.756Z,14.12
2019-02-26T14:12:33.486Z,14.18
2019-02-26T14:15:00.260Z,14.13
2019-02-26T14:17:26.849Z,14.22
2019-02-26T14:19:53.604Z,14.08
2019-02-26T14:22:20.279Z,14.19
2019-02-26T14:24:46.979Z,14.26
2019-02-26T14:27:13.654Z,14.27
2019-02-26T14:29:40.422Z,14.26
2019-02-26T14:32:07.108Z,14.26
2019-02-26T14:34:33.774Z,14.21
2019-02-26T14:37:00.548Z,14.28
2019-02-26T14:39:27.316Z,14.21
2019-02-26T14:41:53.983Z,14.11
2019-02-26T14:44:20.701Z,14.31
2019-02-26T14:46:47.358Z,14.07
2019-02-26T14:49:14.044Z,13.93
2019-02-26T14:51:40.709Z,14.20
2019-02-26T14:54:07.383Z,14.23
2019-02-26T14:56:34.052Z,14.17
2019-02-26T14:59:00.782Z,14.23
2019-02-26T15:01:27.567Z,14.33
2019-02-26T15:03:54.248Z,14.10
2019-02-26T15:06:20.902Z,14.17
2019-02-26T15:08:47.639Z,14.23
2019-02-26T15:11:14.331Z,14.24
2019-02-26T15:13:41.000Z,14.25
2019-02-26T15:16:07.682Z,14.12
2019-02-26T15:18:35.824Z,13.98
2019-02-26T15:21:01.195Z,13.95
2019-02-26T15:23:27.870Z,14.01
2019-02-26T15:25:54.536Z,14.01
2019-02-26T15:28:21.319Z,13.82
2019-02-26T15:30:47.986Z,13.85
2019-02-26T15:33:14.661Z,13.86
2019-02-26T15:35:41.313Z,13.94
2019-02-26T15:38:07.976Z,13.92
2019-02-26T15:40:35.821Z,13.85
2019-02-26T15:43:02.476Z,13.71
2019-02-26T15:45:29.685Z,13.69
2019-02-26T15:47:55.816Z,13.79
2019-02-26T15:50:22.483Z,13.77
2019-02-26T15:52:52.634Z,13.74
2019-02-26T15:55:15.828Z,13.66
2019-02-26T15:57:42.568Z,13.66
2019-02-26T16:00:09.236Z,13.63
2019-02-26T16:02:36.876Z,13.66
2019-02-26T16:05:02.648Z,13.68
2019-02-26T16:07:29.312Z,13.63
2019-02-26T16:09:55.978Z,13.59
2019-02-26T16:12:22.647Z,13.59
2019-02-26T16:14:49.385Z,13.56
2019-02-26T16:17:16.107Z,13.54
2019-02-26T16:19:43.729Z,13.49
2019-02-26T16:22:09.480Z,13.50
2019-02-26T16:24:37.534Z,13.46
2019-02-26T16:27:02.789Z,13.47
2019-02-26T16:29:29.517Z,13.50
2019-02-26T16:31:57.319Z,13.47
2019-02-26T16:34:22.842Z,13.42
2019-02-26T16:36:49.505Z,13.42
2019-02-26T16:39:16.152Z,13.42
2019-02-26T16:41:42.807Z,13.39
2019-02-26T16:44:09.484Z,13.38
2019-02-26T16:46:36.155Z,13.28
2019-02-26T16:49:02.864Z,13.32
2019-02-26T16:51:29.587Z,13.34
2019-02-26T16:53:56.300Z,13.32
2019-02-26T16:56:22.956Z,13.30
2019-02-26T16:58:49.594Z,13.28
2019-02-26T17:01:16.339Z,13.29
2019-02-26T17:03:42.978Z,13.28
2019-02-26T17:06:09.636Z,13.27
2019-02-26T17:08:36.293Z,13.25
2019-02-26T17:11:02.956Z,13.25
2019-02-26T17:13:29.624Z,13.22
2019-02-26T17:15:56.861Z,13.24
2019-02-26T17:18:22.956Z,13.22
2019-02-26T17:20:49.607Z,13.22
2019-02-26T17:23:16.320Z,13.22
2019-02-26T17:25:42.980Z,13.20
2019-02-26T17:28:12.227Z,13.21
2019-02-26T17:30:36.300Z,13.25
2019-02-26T17:33:02.969Z,13.27
2019-02-26T17:35:29.773Z,13.26
2019-02-26T17:37:56.274Z,13.25
2019-02-26T17:40:22.966Z,13.26
2019-02-26T17:42:51.356Z,13.25
2019-02-26T17:45:18.755Z,13.33
2019-02-26T17:47:45.477Z,13.32
2019-02-26T17:50:12.601Z,13.34
2019-02-26T17:52:38.794Z,13.29
2019-02-26T17:55:09.210Z,13.34
2019-02-26T17:57:34.673Z,13.39
2019-02-26T17:59:58.945Z,13.37
2019-02-26T18:02:27.557Z,13.36
2019-02-26T18:04:52.324Z,13.38
2019-02-26T18:07:18.985Z,13.40
2019-02-26T18:09:45.695Z,13.43
2019-02-26T18:12:12.407Z,13.47
2019-02-26T18:14:39.453Z,13.50
2019-02-26T18:17:05.743Z,13.78
2019-02-26T18:19:32.477Z,13.88
2019-02-26T18:21:59.118Z,13.84
2019-02-26T18:24:25.767Z,13.74
2019-02-26T18:26:52.447Z,13.68
2019-02-26T18:29:19.159Z,13.65
2019-02-26T18:31:45.807Z,13.59
2019-02-26T18:34:14.012Z,13.54
2019-02-26T18:36:39.120Z,13.52
2019-02-26T18:39:05.812Z,13.56
2019-02-26T18:41:35.096Z,13.62
2019-02-26T18:43:59.341Z,13.62
2019-02-26T18:46:25.978Z,13.67
2019-02-26T18:48:52.714Z,13.68
2019-02-26T18:51:19.422Z,13.68
2019-02-26T18:53:47.101Z,13.68
2019-02-26T18:56:12.788Z,13.69
2019-02-26T18:58:39.426Z,13.66
2019-02-26T19:01:06.104Z,13.71
2019-02-26T19:03:32.812Z,13.70
2019-02-26T19:05:59.455Z,13.72
2019-02-26T19:08:26.117Z,13.72
2019-02-26T19:10:53.376Z,13.76
2019-02-26T19:13:19.465Z,13.70
2019-02-26T19:15:47.909Z,13.73
2019-02-26T19:18:12.870Z,13.70
2019-02-26T19:20:39.514Z,13.70
2019-02-26T19:23:06.172Z,13.74
2019-02-26T19:25:32.888Z,13.71
2019-02-26T19:27:59.557Z,13.74
2019-02-26T19:30:26.236Z,13.70
2019-02-26T19:32:52.886Z,13.74
2019-02-26T19:35:19.603Z,13.73
2019-02-26T19:37:46.314Z,13.69
2019-02-26T19:40:12.959Z,13.74
2019-02-26T19:42:39.609Z,13.75
2019-02-26T19:45:08.321Z,13.71
2019-02-26T19:47:32.935Z,13.73
2019-02-26T19:49:59.676Z,13.74
2019-02-26T19:52:26.323Z,13.73
2019-02-26T19:54:52.993Z,13.78
2019-02-26T19:57:19.649Z,13.75
2019-02-26T19:59:47.112Z,13.72
2019-02-26T20:02:12.962Z,13.74
2019-02-26T20:04:39.626Z,13.77
2019-02-26T20:07:06.283Z,13.74
2019-02-26T20:09:32.984Z,13.74
2019-02-26T20:11:59.751Z,13.77
2019-02-26T20:14:26.410Z,13.75
2019-02-26T20:16:53.135Z,13.77
2019-02-26T20:19:19.801Z,13.80
2019-02-26T20:21:46.539Z,13.81
2019-02-26T20:24:16.282Z,13.81
2019-02-26T20:26:39.886Z,13.82
2019-02-26T20:29:07.799Z,13.80
2019-02-26T20:31:33.196Z,13.86
2019-02-26T20:33:59.869Z,13.84
2019-02-26T20:36:26.537Z,13.82
2019-02-26T20:38:53.202Z,13.88
2019-02-26T20:41:22.247Z,13.86
2019-02-26T20:43:46.530Z,13.89
2019-02-26T20:46:13.240Z,13.88
2019-02-26T20:48:40.085Z,13.93
2019-02-26T20:51:06.929Z,13.90
2019-02-26T20:53:33.616Z,13.93
2019-02-26T20:56:00.292Z,13.93
2019-02-26T20:58:26.995Z,13.95
2019-02-26T21:00:53.654Z,13.97
2019-02-26T21:03:20.322Z,13.97
2019-02-26T21:05:46.987Z,13.98
2019-02-26T21:08:13.673Z,14.05
2019-02-26T21:10:40.385Z,14.00
2019-02-26T21:13:07.058Z,13.99
2019-02-26T21:15:33.783Z,14.05
2019-02-26T21:18:00.452Z,14.01
2019-02-26T21:20:27.113Z,14.03
2019-02-26T21:22:54.924Z,14.05
2019-02-26T21:25:20.479Z,14.05
2019-02-26T21:27:47.158Z,14.06
2019-02-26T21:30:13.829Z,14.05
2019-02-26T21:32:40.633Z,14.05
2019-02-26T21:35:07.338Z,14.08
2019-02-26T21:37:34.010Z,14.07
2019-02-26T21:40:00.682Z,14.09
2019-02-26T21:42:29.093Z,14.14
2019-02-26T21:44:54.136Z,14.06
2019-02-26T21:47:20.791Z,14.08
2019-02-26T21:49:48.761Z,14.10
2019-02-26T21:52:14.116Z,14.12
2019-02-26T21:54:40.862Z,14.14
2019-02-26T21:57:07.520Z,14.12
2019-02-26T21:59:34.188Z,14.11
2019-02-26T22:02:00.831Z,14.15
2019-02-26T22:04:31.696Z,14.15
2019-02-26T22:06:54.224Z,14.22
2019-02-26T22:09:20.958Z,14.19
2019-02-26T22:11:50.460Z,14.24
2019-02-26T22:14:14.334Z,14.20
2019-02-26T22:16:43.023Z,14.19
2019-02-26T22:19:07.734Z,14.23
2019-02-26T22:21:34.371Z,14.23
2019-02-26T22:24:01.028Z,14.29
2019-02-26T22:26:27.751Z,14.29
2019-02-26T22:28:54.557Z,14.28
2019-02-26T22:31:21.231Z,14.28
2019-02-26T22:33:48.007Z,14.29
2019-02-26T22:36:14.727Z,14.30
2019-02-26T22:38:41.373Z,14.31
2019-02-26T22:41:08.025Z,14.31
2019-02-26T22:43:34.694Z,14.32
2019-02-26T22:46:01.768Z,14.33
2019-02-26T22:48:28.015Z,14.35
2019-02-26T22:50:54.671Z,14.32
2019-02-26T22:53:21.344Z,14.33
2019-02-26T22:55:49.915Z,14.34
2019-02-26T22:58:14.669Z,14.35
2019-02-26T23:00:41.379Z,14.32
2019-02-26T23:03:08.080Z,14.36
2019-02-26T23:05:34.738Z,14.35
2019-02-26T23:08:01.395Z,14.36
2019-02-26T23:10:28.055Z,14.38
2019-02-26T23:12:54.832Z,14.40
2019-02-26T23:15:21.472Z,14.38
2019-02-26T23:17:48.136Z,14.42
2019-02-26T23:20:14.791Z,14.43
2019-02-26T23:22:41.502Z,14.41
2019-02-26T23:25:08.221Z,14.38
2019-02-26T23:27:34.879Z,14.43
2019-02-26T23:30:01.533Z,14.41
2019-02-26T23:32:28.208Z,14.42
2019-02-26T23:34:55.235Z,14.42
2019-02-26T23:37:21.573Z,14.42
2019-02-26T23:39:48.232Z,14.46
2019-02-26T23:42:14.882Z,14.49
2019-02-26T23:44:41.546Z,14.46
2019-02-26T23:47:08.246Z,14.42
2019-02-26T23:49:34.945Z,14.43
2019-02-26T23:52:01.608Z,14.45
2019-02-26T23:54:28.271Z,14.48
2019-02-26T23:56:54.952Z,14.47
2019-02-26T23:59:21.659Z,14.48
